West Branch, MI (48661)

3:34 PM EDT on August 04, 2015 (GMT -0400)
MesoWest | | Change Station
CLOSE
Current Station
Personal Weather Station
Location: West Branch, MI
Elevation: 977 ft
Nearby Weather Stations

Elev 977 ft 44.25 °N, 84.23 °W | Updated 44 minutes ago

Overcast
Overcast
71 °F
Feels Like 76 °F
N
12
Wind Variable Wind from NW
Gusts 22.0 mph

Today
High -- | Low -- °F
--% Chance of Precip.
Yesterday
High -- | Low -- °F
Precip. -- in
6:27 AM 8:57 PM
Waning Gibbous, 75% visible
Pressure 29.92 in
Visibility 10.0 miles
Clouds Mostly Cloudy 9500 ft
Heat Index 76 °F
Dew Point 57 °F
Humidity 61%
Rainfall in
Snow Depth Not available.
UV 5 out of 12
Pollen 6.40 out of 12
Air Quality Not available.
Flu Activity Not available.
METAR KHTL 041853Z AUTO 31011KT 270V330 10SM BKN095 22/13 A2992 RMK AO2 SLP130 T02170128

More Conditions Fewer Conditions

Pressure 29.92 in
Visibility 10.0 miles
Clouds Mostly Cloudy 9500 ft
Heat Index 76 °F
Dew Point 57 °F
Humidity 61%
Rainfall in
Snow Depth Not available.
UV 5 out of 12
Pollen 6.40 out of 12
Air Quality Not available.
Flu Activity Not available.
METAR KHTL 041853Z AUTO 31011KT 270V330 10SM BKN095 22/13 A2992 RMK AO2 SLP130 T02170128

More Conditions Fewer Conditions

Nowcast | as of 3:00 PM EDT on August 4, 2015

At 4 PM...partly cloudy. Chance of showers and isolated thunderstorms. Temperature 71. Northwest winds 12 mph. At 6 PM...partly cloudy. Chance of showers. Temperature 69. Northwest winds 9 mph. At 8 PM...mostly clear. Temperature 67. Northwest winds 8 mph. At 10 PM...mostly clear. Temperature 61. Northwest winds 8 mph.

×

10-Day Weather Forecast

×

Almanac

Astronomy

Aug. 04, 2015 Rise Set
Actual Time
Civil Twilight
Nautical Twilight
Astronomical Twilight
Moon
Length of Visible Light
Length of Day
Tomorrow will be .
, % of the Moon is Illuminated

Today's Extremes

State Highs State Lows

Community

WunderPhotos

Upload Photos

1,843,954 photos uploaded!

WunderBlogs® & News

Nearby

Air Quality

  Air Quality AQ Index Pollutant
Not available.

Snow Depth

Station Depth Elevation

Earthquake Activity

City Distance Mag. Time & Date
Minimum magnitude displayed is 2.5.

Coastal Water Temperatures

Place Temperature

Stations

Nearby Weather Stations

Station Location Temp. Windchill Dew Point Humidity Wind Precip. Elev Updated Type